Darstellungsparameter: Aktuell verwendete Einstellungen:
Skalierung der Graphiken ... ?
xyx+y,   Skalierungsfaktor:      Skalierung: Modus: x, Faktor: 1
Darstellungszeitraum ... ?
Vom - - bis: - -   Zeitraum: 13.08.2017 - 13.08.2017
Min/Max/Avg-Anzeige ... ?
Zeige MMA aktuell
Zeige MMA Monat
Zeige MMA alles
Zeige --A aktuell
Zeige --A Monat
Zeige --A alles
Keine MMA-Anzeige
MMA:
Average (ber die Originaldaten)
MMA-Basis: 13.08.2017 - 13.08.2017
Quicknavigation für Darstellung... ?
Tage:      1T, 2T, 3T, 5T -1T -2T -3T -5T +1T +2T +3T +5T
Wochen: 1W, 2W, 3W -1W -2W -3W +1W +2W +3W
Monate: 1M, 3M, 6M -1M -3M -6M +1M +3M +6M
Jahre:    1J, 3J, 5J, 10J -1J -3J -5J -10J +1J +3J +5J +10J
Nutze für die Darstellung ... ?
Originaldaten oder Mittelwerte auf ...
Stundenbasis Tagesbasis Wochenbasis
Monatsbasis Jahresbasis      Datenbasis: Original-Daten
Darstellen als:
Statistik (Auto) Statistik J:M      Darstellung:
Zur Graphik,    zurück zur Übersicht aller Sensoren.
 
Tabellarische Datenbersicht: ?
 
Sensor: Nr:Datum:Temp:Abs-Feuchte:Windchill:Wind:
Aussen-T/F 1 13-08-2017 00:00:00 16.6 C 13.28 g/m*3 16.6 C 8.1 km/h
2 13-08-2017 00:05:00 16.6 C 13.28 g/m*3 16.6 C 8.1 km/h
3 13-08-2017 00:10:00 16.6 C 13.28 g/m*3 16.6 C 4.8 km/h
4 13-08-2017 00:15:00 16.6 C 13.28 g/m*3 16.6 C 12.9 km/h
5 13-08-2017 00:20:00 16.5 C 13.2 g/m*3 16.5 C 9.7 km/h
6 13-08-2017 00:25:00 16.5 C 13.2 g/m*3 16.5 C 11.3 km/h
7 13-08-2017 00:30:00 16.6 C 13.28 g/m*3 16.6 C 4.8 km/h
8 13-08-2017 00:35:00 16.6 C 13.28 g/m*3 16.6 C 3.2 km/h
9 13-08-2017 00:40:00 16.6 C 13.28 g/m*3 16.6 C 3.2 km/h
10 13-08-2017 00:45:00 16.5 C 13.34 g/m*3 16.5 C 3.2 km/h
11 13-08-2017 00:50:00 16.5 C 13.34 g/m*3 16.5 C 3.2 km/h
12 13-08-2017 00:55:00 16.5 C 13.34 g/m*3 16.5 C 8.1 km/h
13 13-08-2017 01:00:00 16.5 C 13.34 g/m*3 16.5 C 1.6 km/h
14 13-08-2017 01:05:00 16.5 C 13.34 g/m*3 16.5 C 4.8 km/h
15 13-08-2017 01:10:00 16.5 C 13.34 g/m*3 16.5 C 3.2 km/h
16 13-08-2017 01:15:00 16.5 C 13.34 g/m*3 16.5 C 4.8 km/h
17 13-08-2017 01:20:00 16.5 C 13.34 g/m*3 16.5 C 6.4 km/h
18 13-08-2017 01:25:00 16.6 C 13.42 g/m*3 16.6 C 6.4 km/h
19 13-08-2017 01:30:00 16.6 C 13.42 g/m*3 16.6 C 9.7 km/h
20 13-08-2017 01:35:00 16.6 C 13.28 g/m*3 16.6 C 6.4 km/h
21 13-08-2017 01:40:00 16.7 C 13.36 g/m*3 16.7 C 8.1 km/h
22 13-08-2017 01:45:00 16.7 C 13.36 g/m*3 16.7 C 1.6 km/h
23 13-08-2017 01:50:00 16.6 C 13.28 g/m*3 16.6 C 11.3 km/h
24 13-08-2017 01:55:00 16.7 C 13.36 g/m*3 16.7 C 3.2 km/h
25 13-08-2017 02:00:00 16.7 C 13.36 g/m*3 16.7 C 4.8 km/h
Sensor: Nr:Datum:Temp:Abs-Feuchte:Windchill:Wind:
Aussen-T/F 26 13-08-2017 02:05:00 16.7 C 13.36 g/m*3 16.7 C 1.6 km/h
27 13-08-2017 02:10:00 16.6 C 13.28 g/m*3 16.6 C 1.6 km/h
28 13-08-2017 02:15:00 16.6 C 13.28 g/m*3 16.6 C 14.5 km/h
29 13-08-2017 02:20:00 16.6 C 13.28 g/m*3 16.6 C 3.2 km/h
30 13-08-2017 02:25:00 16.6 C 13.28 g/m*3 16.6 C 1.6 km/h
31 13-08-2017 02:30:00 16.6 C 13.28 g/m*3 16.6 C 4.8 km/h
32 13-08-2017 02:35:00 16.6 C 13.28 g/m*3 16.6 C 1.6 km/h
33 13-08-2017 02:40:00 16.6 C 13.28 g/m*3 16.6 C 1.6 km/h
34 13-08-2017 02:45:00 16.6 C 13.28 g/m*3 16.6 C 1.6 km/h
35 13-08-2017 02:50:00 16.6 C 13.28 g/m*3 16.6 C 6.4 km/h
36 13-08-2017 02:55:00 16.6 C 13.42 g/m*3 16.6 C 0 km/h
37 13-08-2017 03:00:00 16.6 C 13.42 g/m*3 16.6 C 3.2 km/h
38 13-08-2017 03:05:00 16.6 C 13.42 g/m*3 16.6 C 6.4 km/h
39 13-08-2017 03:10:00 16.6 C 13.42 g/m*3 16.6 C 4.8 km/h
40 13-08-2017 03:15:00 16.6 C 13.42 g/m*3 16.6 C 4.8 km/h
41 13-08-2017 03:20:00 16.6 C 13.42 g/m*3 16.6 C 1.6 km/h
42 13-08-2017 03:25:00 16.5 C 13.34 g/m*3 16.5 C 1.6 km/h
43 13-08-2017 03:30:00 16.5 C 13.34 g/m*3 16.5 C 0 km/h
44 13-08-2017 03:35:00 16.4 C 13.26 g/m*3 16.4 C 0 km/h
45 13-08-2017 03:40:00 16.4 C 13.26 g/m*3 16.4 C 0 km/h
46 13-08-2017 03:45:00 16.4 C 13.26 g/m*3 16.4 C 0 km/h
47 13-08-2017 03:50:00 16.4 C 13.26 g/m*3 16.4 C 0 km/h
48 13-08-2017 03:55:00 16.3 C 13.18 g/m*3 16.3 C 0 km/h
49 13-08-2017 04:00:00 16.3 C 13.18 g/m*3 16.3 C 0 km/h
50 13-08-2017 04:05:00 16.3 C 13.18 g/m*3 16.3 C 0 km/h
Sensor: Nr:Datum:Temp:Abs-Feuchte:Windchill:Wind:
Aussen-T/F 51 13-08-2017 04:10:00 16.3 C 13.18 g/m*3 16.3 C 0 km/h
52 13-08-2017 04:15:00 16.3 C 13.18 g/m*3 16.3 C 0 km/h
53 13-08-2017 04:20:00 16.3 C 13.18 g/m*3 16.3 C 0 km/h
54 13-08-2017 04:25:00 16.3 C 13.18 g/m*3 16.3 C 0 km/h
55 13-08-2017 04:30:00 16.2 C 13.1 g/m*3 16.2 C 0 km/h
56 13-08-2017 04:35:00 16.2 C 13.1 g/m*3 16.2 C 0 km/h
57 13-08-2017 04:40:00 16.2 C 13.1 g/m*3 16.2 C 0 km/h
58 13-08-2017 04:45:00 16.2 C 13.1 g/m*3 16.2 C 0 km/h
59 13-08-2017 04:50:00 16.1 C 13.02 g/m*3 16.1 C 0 km/h
60 13-08-2017 04:55:00 16.1 C 13.16 g/m*3 16.1 C 0 km/h
61 13-08-2017 05:00:00 16.1 C 13.02 g/m*3 16.1 C 0 km/h
62 13-08-2017 05:05:00 16.1 C 13.02 g/m*3 16.1 C 0 km/h
63 13-08-2017 05:10:00 16.1 C 13.16 g/m*3 16.1 C 0 km/h
64 13-08-2017 05:15:00 16.1 C 13.16 g/m*3 16.1 C 0 km/h
65 13-08-2017 05:20:00 16.1 C 13.16 g/m*3 16.1 C 0 km/h
66 13-08-2017 05:25:00 16.1 C 13.16 g/m*3 16.1 C 0 km/h
67 13-08-2017 05:30:00 16.1 C 13.16 g/m*3 16.1 C 0 km/h
68 13-08-2017 05:35:00 16.1 C 13.16 g/m*3 16.1 C 0 km/h
69 13-08-2017 05:40:00 16.1 C 13.16 g/m*3 16.1 C 0 km/h
70 13-08-2017 05:45:00 16 C 13.08 g/m*3 16 C 0 km/h
71 13-08-2017 05:50:00 15.9 C 13 g/m*3 15.9 C 0 km/h
72 13-08-2017 05:55:00 15.9 C 13 g/m*3 15.9 C 0 km/h
73 13-08-2017 06:00:00 15.8 C 12.92 g/m*3 15.8 C 0 km/h
74 13-08-2017 06:05:00 15.7 C 12.71 g/m*3 15.7 C 0 km/h
75 13-08-2017 06:10:00 15.7 C 12.71 g/m*3 15.7 C 0 km/h
Sensor: Nr:Datum:Temp:Abs-Feuchte:Windchill:Wind:
Aussen-T/F 76 13-08-2017 06:15:00 15.6 C 12.63 g/m*3 15.6 C 0 km/h
77 13-08-2017 06:20:00 15.5 C 12.69 g/m*3 15.5 C 0 km/h
78 13-08-2017 06:25:00 15.4 C 12.61 g/m*3 15.4 C 0 km/h
79 13-08-2017 06:30:00 15.5 C 12.69 g/m*3 15.5 C 0 km/h
80 13-08-2017 06:35:00 15.6 C 12.77 g/m*3 15.6 C 0 km/h
81 13-08-2017 06:40:00 15.6 C 12.77 g/m*3 15.6 C 0 km/h
82 13-08-2017 06:45:00 15.7 C 12.84 g/m*3 15.7 C 6.4 km/h
83 13-08-2017 06:50:00 15.7 C 12.84 g/m*3 15.7 C 0 km/h
84 13-08-2017 06:55:00 15.8 C 12.92 g/m*3 15.8 C 0 km/h
85 13-08-2017 07:00:00 15.8 C 12.92 g/m*3 15.8 C 0 km/h
86 13-08-2017 07:05:00 15.8 C 12.92 g/m*3 15.8 C 0 km/h
87 13-08-2017 07:10:00 15.8 C 12.92 g/m*3 15.8 C 0 km/h
88 13-08-2017 07:15:00 15.9 C 13 g/m*3 15.9 C 0 km/h
89 13-08-2017 07:20:00 15.9 C 13 g/m*3 15.9 C 0 km/h
90 13-08-2017 07:25:00 16 C 13.22 g/m*3 16 C 0 km/h
91 13-08-2017 07:30:00 16.1 C 13.16 g/m*3 16.1 C 0 km/h
92 13-08-2017 07:35:00 16.2 C 13.24 g/m*3 16.2 C 0 km/h
93 13-08-2017 07:40:00 16.2 C 13.24 g/m*3 16.2 C 0 km/h
94 13-08-2017 07:45:00 16.1 C 13.16 g/m*3 16.1 C 0 km/h
95 13-08-2017 07:50:00 16.1 C 13.16 g/m*3 16.1 C 0 km/h
96 13-08-2017 07:55:00 16.1 C 13.16 g/m*3 16.1 C 0 km/h
97 13-08-2017 08:00:00 16.1 C 13.16 g/m*3 16.1 C 0 km/h
98 13-08-2017 08:05:00 16.1 C 13.16 g/m*3 16.1 C 0 km/h
99 13-08-2017 08:10:00 16.1 C 13.16 g/m*3 16.1 C 1.6 km/h
100 13-08-2017 08:15:00 16.1 C 13.16 g/m*3 16.1 C 6.4 km/h
Sensor: Nr:Datum:Temp:Abs-Feuchte:Windchill:Wind:
Aussen-T/F 101 13-08-2017 08:20:00 16.2 C 13.24 g/m*3 16.2 C 0 km/h
102 13-08-2017 08:25:00 16.3 C 13.32 g/m*3 16.3 C 1.6 km/h
103 13-08-2017 08:30:00 16.3 C 13.18 g/m*3 16.3 C 4.8 km/h
104 13-08-2017 08:35:00 16.3 C 13.18 g/m*3 16.3 C 0 km/h
105 13-08-2017 08:40:00 16.4 C 13.26 g/m*3 16.4 C 0 km/h
106 13-08-2017 08:45:00 16.6 C 13.42 g/m*3 16.6 C 0 km/h
107 13-08-2017 08:50:00 16.6 C 13.28 g/m*3 16.6 C 9.7 km/h
108 13-08-2017 08:55:00 16.6 C 13.14 g/m*3 16.6 C 6.4 km/h
109 13-08-2017 09:00:00 16.7 C 12.93 g/m*3 16.7 C 8.1 km/h
110 13-08-2017 09:05:00 16.8 C 12.87 g/m*3 16.8 C 8.1 km/h
111 13-08-2017 09:10:00 17 C 13.02 g/m*3 17 C 6.4 km/h
112 13-08-2017 09:15:00 17.2 C 13.18 g/m*3 17.2 C 3.2 km/h
113 13-08-2017 09:20:00 17.2 C 12.89 g/m*3 17.2 C 9.7 km/h
114 13-08-2017 09:25:00 17.4 C 12.89 g/m*3 17.4 C 9.7 km/h
115 13-08-2017 09:30:00 17.6 C 13.05 g/m*3 17.6 C 4.8 km/h
116 13-08-2017 09:35:00 17.7 C 12.98 g/m*3 17.7 C 6.4 km/h
117 13-08-2017 09:40:00 17.8 C 12.9 g/m*3 17.8 C 4.8 km/h
118 13-08-2017 09:45:00 17.9 C 12.83 g/m*3 17.9 C 4.8 km/h
119 13-08-2017 09:50:00 18 C 12.9 g/m*3 18 C 3.2 km/h
120 13-08-2017 09:55:00 18.1 C 12.98 g/m*3 18.1 C 6.4 km/h
121 13-08-2017 10:00:00 18.2 C 13.37 g/m*3 18.2 C 1.6 km/h
122 13-08-2017 10:05:00 18.1 C 12.82 g/m*3 18.1 C 4.8 km/h
123 13-08-2017 10:10:00 18.1 C 13.13 g/m*3 18.1 C 3.2 km/h
124 13-08-2017 10:15:00 18 C 12.9 g/m*3 18 C 1.6 km/h
125 13-08-2017 10:20:00 17.9 C 12.67 g/m*3 17.9 C 3.2 km/h
Sensor: Nr:Datum:Temp:Abs-Feuchte:Windchill:Wind:
Aussen-T/F 126 13-08-2017 10:25:00 17.9 C 12.67 g/m*3 17.9 C 3.2 km/h
127 13-08-2017 10:30:00 17.9 C 12.98 g/m*3 17.9 C 1.6 km/h
128 13-08-2017 10:35:00 17.8 C 12.9 g/m*3 17.8 C 0 km/h
129 13-08-2017 10:40:00 17.7 C 12.52 g/m*3 17.7 C 0 km/h
130 13-08-2017 10:45:00 17.7 C 12.98 g/m*3 17.7 C 0 km/h
131 13-08-2017 10:50:00 17.7 C 13.13 g/m*3 17.7 C 1.6 km/h
132 13-08-2017 10:55:00 17.7 C 12.67 g/m*3 17.7 C 0 km/h
133 13-08-2017 11:00:00 17.6 C 12.3 g/m*3 17.6 C 3.2 km/h
134 13-08-2017 11:05:00 17.9 C 13.13 g/m*3 17.9 C 0 km/h
135 13-08-2017 11:10:00 18.1 C 13.29 g/m*3 18.1 C 1.6 km/h
136 13-08-2017 11:15:00 18.2 C 12.9 g/m*3 18.2 C 9.7 km/h
137 13-08-2017 11:20:00 18.4 C 13.05 g/m*3 18.4 C 6.4 km/h
138 13-08-2017 11:25:00 18.5 C 12.5 g/m*3 18.5 C 8.1 km/h
139 13-08-2017 11:30:00 18.6 C 12.26 g/m*3 18.6 C 4.8 km/h
140 13-08-2017 11:35:00 18.7 C 12.81 g/m*3 18.7 C 1.6 km/h
141 13-08-2017 11:40:00 18.7 C 13.29 g/m*3 18.7 C 0 km/h
142 13-08-2017 11:45:00 18.7 C 13.61 g/m*3 18.7 C 0 km/h
143 13-08-2017 11:50:00 18.7 C 13.77 g/m*3 18.7 C 1.6 km/h
144 13-08-2017 11:55:00 18.7 C 13.29 g/m*3 18.7 C 8.1 km/h
145 13-08-2017 12:00:00 18.8 C 12.72 g/m*3 18.8 C 12.9 km/h
146 13-08-2017 12:05:00 19.1 C 12.95 g/m*3 19.1 C 4.8 km/h
147 13-08-2017 12:10:00 19.2 C 12.86 g/m*3 19.2 C 3.2 km/h
148 13-08-2017 12:15:00 19.4 C 12.51 g/m*3 19.4 C 3.2 km/h
149 13-08-2017 12:20:00 19.7 C 12.91 g/m*3 19.7 C 4.8 km/h
150 13-08-2017 12:25:00 19.9 C 12.54 g/m*3 19.9 C 6.4 km/h
Sensor: Nr:Datum:Temp:Abs-Feuchte:Windchill:Wind:
Aussen-T/F 151 13-08-2017 12:30:00 20.1 C 12.69 g/m*3 20.1 C 1.6 km/h
152 13-08-2017 12:35:00 20.2 C 12.59 g/m*3 20.2 C 6.4 km/h
153 13-08-2017 12:40:00 20.3 C 13.01 g/m*3 20.3 C 8.1 km/h
154 13-08-2017 12:45:00 20.3 C 13.19 g/m*3 20.3 C 4.8 km/h
155 13-08-2017 12:50:00 20.3 C 13.01 g/m*3 20.3 C 8.1 km/h
156 13-08-2017 12:55:00 20.3 C 13.01 g/m*3 20.3 C 9.7 km/h
157 13-08-2017 13:00:00 20.2 C 12.94 g/m*3 20.2 C 0 km/h
158 13-08-2017 13:05:00 20.1 C 12.52 g/m*3 20.1 C 6.4 km/h
159 13-08-2017 13:10:00 20.2 C 12.41 g/m*3 20.2 C 6.4 km/h
160 13-08-2017 13:15:00 20.2 C 12.59 g/m*3 20.2 C 4.8 km/h
161 13-08-2017 13:20:00 20.4 C 12.74 g/m*3 20.4 C 6.4 km/h
162 13-08-2017 13:25:00 20.6 C 12.53 g/m*3 20.6 C 8.1 km/h
163 13-08-2017 13:30:00 20.8 C 12.49 g/m*3 20.8 C 6.4 km/h
164 13-08-2017 13:35:00 20.9 C 12.57 g/m*3 20.9 C 9.7 km/h
165 13-08-2017 13:40:00 21 C 13.01 g/m*3 21 C 6.4 km/h
166 13-08-2017 13:45:00 21 C 13.01 g/m*3 21 C 8.1 km/h
167 13-08-2017 13:50:00 21.1 C 13.27 g/m*3 21.1 C 4.8 km/h
168 13-08-2017 13:55:00 21.1 C 12.71 g/m*3 21.1 C 4.8 km/h
169 13-08-2017 14:00:00 21.3 C 13.23 g/m*3 21.3 C 9.7 km/h
170 13-08-2017 14:05:00 21.4 C 12.94 g/m*3 21.4 C 9.7 km/h
171 13-08-2017 14:10:00 21.4 C 12.75 g/m*3 21.4 C 8.1 km/h
172 13-08-2017 14:15:00 21.5 C 12.63 g/m*3 21.5 C 6.4 km/h
173 13-08-2017 14:20:00 21.6 C 12.33 g/m*3 21.6 C 6.4 km/h
174 13-08-2017 14:25:00 21.6 C 12.33 g/m*3 21.6 C 9.7 km/h
175 13-08-2017 14:30:00 21.6 C 12.52 g/m*3 21.6 C 8.1 km/h
Sensor: Nr:Datum:Temp:Abs-Feuchte:Windchill:Wind:
Aussen-T/F 176 13-08-2017 14:35:00 21.7 C 12.78 g/m*3 21.7 C 9.7 km/h
177 13-08-2017 14:40:00 21.7 C 12.59 g/m*3 21.7 C 9.7 km/h
178 13-08-2017 14:45:00 21.6 C 12.9 g/m*3 21.6 C 9.7 km/h
179 13-08-2017 14:50:00 21.6 C 12.9 g/m*3 21.6 C 9.7 km/h
180 13-08-2017 14:55:00 21.5 C 12.82 g/m*3 21.5 C 11.3 km/h
181 13-08-2017 15:00:00 21.6 C 13.28 g/m*3 21.6 C 6.4 km/h
182 13-08-2017 15:05:00 21.7 C 12.59 g/m*3 21.7 C 8.1 km/h
183 13-08-2017 15:10:00 21.7 C 12.78 g/m*3 21.7 C 8.1 km/h
184 13-08-2017 15:15:00 21.8 C 12.85 g/m*3 21.8 C 4.8 km/h
185 13-08-2017 15:20:00 21.9 C 12.93 g/m*3 21.9 C 6.4 km/h
186 13-08-2017 15:25:00 22.2 C 12.96 g/m*3 22.2 C 11.3 km/h
187 13-08-2017 15:30:00 22.4 C 12.91 g/m*3 22.4 C 8.1 km/h
188 13-08-2017 15:35:00 22.6 C 12.86 g/m*3 22.6 C 8.1 km/h
189 13-08-2017 15:40:00 22.6 C 12.46 g/m*3 22.6 C 12.9 km/h
190 13-08-2017 15:45:00 22.6 C 12.46 g/m*3 22.6 C 11.3 km/h
191 13-08-2017 15:50:00 22.5 C 12.98 g/m*3 22.5 C 12.9 km/h
192 13-08-2017 15:55:00 22.1 C 12.88 g/m*3 22.1 C 11.3 km/h
193 13-08-2017 16:00:00 22.2 C 13.15 g/m*3 22.2 C 8.1 km/h
194 13-08-2017 16:05:00 22.5 C 13.38 g/m*3 22.5 C 11.3 km/h
195 13-08-2017 16:10:00 22.7 C 13.13 g/m*3 22.7 C 12.9 km/h
196 13-08-2017 16:15:00 22.7 C 13.13 g/m*3 22.7 C 8.1 km/h
197 13-08-2017 16:20:00 22.4 C 12.71 g/m*3 22.4 C 9.7 km/h
198 13-08-2017 16:25:00 22.2 C 12.96 g/m*3 22.2 C 6.4 km/h
199 13-08-2017 16:30:00 22.1 C 14.05 g/m*3 22.1 C 3.2 km/h
200 13-08-2017 16:35:00 22.2 C 12.57 g/m*3 22.2 C 8.1 km/h
Sensor: Nr:Datum:Temp:Abs-Feuchte:Windchill:Wind:
Aussen-T/F 201 13-08-2017 16:40:00 22.6 C 13.06 g/m*3 22.6 C 6.4 km/h
202 13-08-2017 16:45:00 22.8 C 13 g/m*3 22.8 C 6.4 km/h
203 13-08-2017 16:50:00 23 C 13.15 g/m*3 23 C 8.1 km/h
204 13-08-2017 16:55:00 22.9 C 12.47 g/m*3 22.9 C 6.4 km/h
205 13-08-2017 17:00:00 22.7 C 12.73 g/m*3 22.7 C 6.4 km/h
206 13-08-2017 17:05:00 22.8 C 14.63 g/m*3 22.8 C 1.6 km/h
207 13-08-2017 17:10:00 22.8 C 14.83 g/m*3 22.8 C 0 km/h
208 13-08-2017 17:15:00 22.7 C 15.15 g/m*3 22.7 C 0 km/h
209 13-08-2017 17:20:00 22.4 C 12.91 g/m*3 22.4 C 4.8 km/h
210 13-08-2017 17:25:00 22.2 C 12.37 g/m*3 22.2 C 8.1 km/h
211 13-08-2017 17:30:00 22.2 C 14.72 g/m*3 22.2 C 3.2 km/h
212 13-08-2017 17:35:00 22.2 C 15.31 g/m*3 22.2 C 0 km/h
213 13-08-2017 17:40:00 22.4 C 13.7 g/m*3 22.4 C 6.4 km/h
214 13-08-2017 17:45:00 22.8 C 12.4 g/m*3 22.8 C 6.4 km/h
215 13-08-2017 17:50:00 23.2 C 13.1 g/m*3 23.2 C 4.8 km/h
216 13-08-2017 17:55:00 23.3 C 12.34 g/m*3 23.3 C 4.8 km/h
217 13-08-2017 18:00:00 23.2 C 14.55 g/m*3 23.2 C 1.6 km/h
218 13-08-2017 18:05:00 22.9 C 15.12 g/m*3 22.9 C 0 km/h
219 13-08-2017 18:10:00 23.1 C 13.64 g/m*3 23.1 C 4.8 km/h
220 13-08-2017 18:15:00 23.3 C 13.38 g/m*3 23.3 C 6.4 km/h
221 13-08-2017 18:20:00 23.4 C 14.72 g/m*3 23.4 C 1.6 km/h
222 13-08-2017 18:25:00 23.1 C 14.68 g/m*3 23.1 C 0 km/h
223 13-08-2017 18:30:00 22.7 C 14.34 g/m*3 22.7 C 0 km/h
224 13-08-2017 18:35:00 22.1 C 14.25 g/m*3 22.1 C 0 km/h
225 13-08-2017 18:40:00 21.6 C 14.22 g/m*3 21.6 C 0 km/h
Sensor: Nr:Datum:Temp:Abs-Feuchte:Windchill:Wind:
Aussen-T/F 226 13-08-2017 18:45:00 21.2 C 13.9 g/m*3 21.2 C 0 km/h
227 13-08-2017 18:50:00 20.9 C 14.02 g/m*3 20.9 C 0 km/h
228 13-08-2017 18:55:00 20.7 C 14.22 g/m*3 20.7 C 0 km/h
229 13-08-2017 19:00:00 20.6 C 14.14 g/m*3 20.6 C 0 km/h
230 13-08-2017 19:05:00 20.4 C 13.98 g/m*3 20.4 C 0 km/h
231 13-08-2017 19:10:00 20.3 C 14.07 g/m*3 20.3 C 0 km/h
232 13-08-2017 19:15:00 20.2 C 14.16 g/m*3 20.2 C 0 km/h
233 13-08-2017 19:20:00 20.1 C 14.08 g/m*3 20.1 C 0 km/h
234 13-08-2017 19:25:00 20 C 14.17 g/m*3 20 C 0 km/h
235 13-08-2017 19:30:00 19.9 C 13.92 g/m*3 19.9 C 0 km/h
236 13-08-2017 19:35:00 19.8 C 13.84 g/m*3 19.8 C 0 km/h
237 13-08-2017 19:40:00 19.5 C 13.76 g/m*3 19.5 C 0 km/h
238 13-08-2017 19:45:00 19.3 C 13.44 g/m*3 19.3 C 0 km/h
239 13-08-2017 19:50:00 19.1 C 13.44 g/m*3 19.1 C 0 km/h
240 13-08-2017 19:55:00 18.9 C 13.45 g/m*3 18.9 C 0 km/h
241 13-08-2017 20:00:00 18.9 C 13.45 g/m*3 18.9 C 0 km/h
242 13-08-2017 20:05:00 18.9 C 13.45 g/m*3 18.9 C 0 km/h
243 13-08-2017 20:10:00 18.9 C 13.45 g/m*3 18.9 C 0 km/h
244 13-08-2017 20:15:00 18.9 C 13.61 g/m*3 18.9 C 0 km/h
245 13-08-2017 20:20:00 18.9 C 13.61 g/m*3 18.9 C 0 km/h
246 13-08-2017 20:25:00 18.9 C 13.45 g/m*3 18.9 C 0 km/h
247 13-08-2017 20:30:00 18.8 C 13.37 g/m*3 18.8 C 0 km/h
248 13-08-2017 20:35:00 18.8 C 13.37 g/m*3 18.8 C 0 km/h
249 13-08-2017 20:40:00 18.7 C 13.29 g/m*3 18.7 C 0 km/h
250 13-08-2017 20:45:00 18.5 C 13.29 g/m*3 18.5 C 0 km/h
Sensor: Nr:Datum:Temp:Abs-Feuchte:Windchill:Wind:
Aussen-T/F 251 13-08-2017 20:50:00 18.3 C 12.98 g/m*3 18.3 C 0 km/h
252 13-08-2017 20:55:00 18.2 C 12.9 g/m*3 18.2 C 0 km/h
253 13-08-2017 21:00:00 18 C 12.9 g/m*3 18 C 0 km/h
254 13-08-2017 21:05:00 17.8 C 12.75 g/m*3 17.8 C 0 km/h
255 13-08-2017 21:10:00 17.7 C 12.52 g/m*3 17.7 C 0 km/h
256 13-08-2017 21:15:00 17.5 C 12.37 g/m*3 17.5 C 0 km/h
257 13-08-2017 21:20:00 17.4 C 12.3 g/m*3 17.4 C 0 km/h
258 13-08-2017 21:25:00 17.3 C 12.23 g/m*3 17.3 C 0 km/h
259 13-08-2017 21:30:00 17.2 C 12.3 g/m*3 17.2 C 0 km/h
260 13-08-2017 21:35:00 17.1 C 12.23 g/m*3 17.1 C 0 km/h
261 13-08-2017 21:40:00 16.9 C 12.08 g/m*3 16.9 C 0 km/h
262 13-08-2017 21:45:00 16.9 C 12.23 g/m*3 16.9 C 0 km/h
263 13-08-2017 21:50:00 16.8 C 12.15 g/m*3 16.8 C 0 km/h
264 13-08-2017 21:55:00 16.7 C 12.22 g/m*3 16.7 C 0 km/h
265 13-08-2017 22:00:00 16.6 C 12.29 g/m*3 16.6 C 0 km/h
266 13-08-2017 22:05:00 16.4 C 12.14 g/m*3 16.4 C 0 km/h
267 13-08-2017 22:10:00 16.3 C 12.07 g/m*3 16.3 C 0 km/h
268 13-08-2017 22:15:00 16.2 C 12 g/m*3 16.2 C 0 km/h
269 13-08-2017 22:20:00 16.1 C 12.06 g/m*3 16.1 C 0 km/h
270 13-08-2017 22:25:00 16 C 11.99 g/m*3 16 C 0 km/h
271 13-08-2017 22:30:00 15.8 C 11.98 g/m*3 15.8 C 0 km/h
272 13-08-2017 22:35:00 15.8 C 11.98 g/m*3 15.8 C 0 km/h
273 13-08-2017 22:40:00 15.6 C 11.84 g/m*3 15.6 C 0 km/h
274 13-08-2017 22:45:00 15.5 C 11.76 g/m*3 15.5 C 0 km/h
275 13-08-2017 22:50:00 15.3 C 11.62 g/m*3 15.3 C 0 km/h
Sensor: Nr:Datum:Temp:Abs-Feuchte:Windchill:Wind:
Aussen-T/F 276 13-08-2017 22:55:00 15.2 C 11.68 g/m*3 15.2 C 0 km/h
277 13-08-2017 23:00:00 15.1 C 11.61 g/m*3 15.1 C 0 km/h
278 13-08-2017 23:05:00 15.1 C 11.74 g/m*3 15.1 C 0 km/h
279 13-08-2017 23:10:00 14.9 C 11.6 g/m*3 14.9 C 0 km/h
280 13-08-2017 23:15:00 14.8 C 11.53 g/m*3 14.8 C 0 km/h
281 13-08-2017 23:20:00 14.7 C 11.46 g/m*3 14.7 C 0 km/h
282 13-08-2017 23:25:00 14.6 C 11.39 g/m*3 14.6 C 0 km/h
283 13-08-2017 23:30:00 14.4 C 11.37 g/m*3 14.4 C 0 km/h
284 13-08-2017 23:35:00 14.4 C 11.37 g/m*3 14.4 C 0 km/h
285 13-08-2017 23:40:00 14.3 C 11.3 g/m*3 14.3 C 0 km/h
286 13-08-2017 23:45:00 14.2 C 11.23 g/m*3 14.2 C 0 km/h
287 13-08-2017 23:50:00 14.2 C 11.23 g/m*3 14.2 C 0 km/h
288 13-08-2017 23:55:00 14.1 C 11.17 g/m*3 14.1 C 0 km/h

Legende:
   Min
   Max


Maximal/Minimal-Werte vom 13.08.2017 - 13.08.2017

Sensor Min Max Avg
Temp
(Aussen-T/F)
14.1 °C
13-08-2017  23:55:00
23.4 °C
13-08-2017  18:20:00
18.26 °C
Abs-Feuchte
(Aussen-T/F)
11.17 g/m*3
13-08-2017  23:55:00
15.31 g/m*3
13-08-2017  17:35:00
12.98 g/m*3
Windchill
(Aussen-T/F)
14.1 C
13-08-2017  23:55:00
23.4 C
13-08-2017  18:20:00
18.19 C

Die Daten stammen von einer Davis Vantage Pro 2 Wetter-Station und werden unter Linux mit der Software wview2wettercgi und aufbereitet. Alle Angaben erfolgen ohne Gewähr für ihre Vollständigkeit oder Richtigkeit.
Kontakt: Rainer Krienke krienke@uni-koblenz.de . Meine Webseiten an der Uni Koblenz oder privat.
Version: $Revision: 0.78 $